Bourn Airport


Codes: EGSN/
Name: Bourn Airport
City: Cambridge
Country: United Kingdom
Elevation: 226 ft.
Website:
Wikipedia:

Photos at Bourn Airport


   Photos courtesy of SpottingLog. You can add your own sightings and photos by signing up for a free trial today.



No photos found.

Weather at Bourn Airport


Time (UTC)DescriptionTempratureWindCloud coverageVisibilityPressureHumidity
25-Jun-2024 15:00Clear Sky25°C4 mph, NE1%10000m1016hPa53%
25-Jun-2024 18:00Clear Sky24°C9 mph, N5%10000m1015hPa67%
25-Jun-2024 21:00Clear Sky17°C7 mph, E1%10000m1016hPa94%
26-Jun-2024 00:00Clear Sky15°C4 mph, E1%10000m1016hPa95%
26-Jun-2024 03:00Clear Sky13°C4 mph, NE0%10000m1015hPa95%
26-Jun-2024 06:00Clear Sky15°C7 mph, NE0%10000m1015hPa88%
26-Jun-2024 09:00Clear Sky20°C7 mph, NE0%10000m1014hPa74%
26-Jun-2024 12:00Few Clouds24°C2 mph, SE16%10000m1012hPa69%
26-Jun-2024 15:00Light Rain24°C4 mph, N98%10000m1011hPa72%
26-Jun-2024 18:00Light Rain23°C4 mph, E83%10000m1010hPa81%
26-Jun-2024 21:00Light Rain19°C7 mph, SE86%10000m1009hPa92%
27-Jun-2024 00:00Broken Clouds17°C7 mph, SW66%10000m1008hPa94%
27-Jun-2024 03:00Broken Clouds16°C7 mph, SW76%10000m1007hPa96%
27-Jun-2024 06:00Overcast Clouds16°C9 mph, SW88%10000m1007hPa94%
27-Jun-2024 09:00Overcast Clouds18°C11 mph, SW100%10000m1007hPa75%
27-Jun-2024 12:00Overcast Clouds17°C11 mph, SW100%10000m1008hPa81%
27-Jun-2024 15:00Scattered Clouds20°C18 mph, SW31%10000m1007hPa57%
27-Jun-2024 18:00Few Clouds17°C16 mph, SW18%10000m1008hPa68%
27-Jun-2024 21:00Clear Sky13°C13 mph, SW1%10000m1010hPa77%
28-Jun-2024 00:00Clear Sky12°C13 mph, SW1%10000m1010hPa86%
28-Jun-2024 03:00Clear Sky11°C13 mph, SW3%10000m1011hPa88%
28-Jun-2024 06:00Clear Sky12°C11 mph, SW4%10000m1013hPa81%
28-Jun-2024 09:00Broken Clouds15°C16 mph, W64%10000m1015hPa67%
28-Jun-2024 12:00Scattered Clouds18°C13 mph, SW47%10000m1015hPa55%
28-Jun-2024 15:00Broken Clouds19°C13 mph, SW66%10000m1015hPa53%
28-Jun-2024 18:00Broken Clouds17°C11 mph, SW65%10000m1015hPa66%
28-Jun-2024 21:00Overcast Clouds12°C7 mph, SW95%10000m1015hPa78%
29-Jun-2024 00:00Broken Clouds10°C7 mph, SW58%10000m1015hPa85%
29-Jun-2024 03:00Overcast Clouds10°C7 mph, SW100%10000m1014hPa91%
29-Jun-2024 06:00Overcast Clouds13°C7 mph, S100%10000m1012hPa87%
29-Jun-2024 09:00Overcast Clouds17°C9 mph, SW95%10000m1012hPa67%
29-Jun-2024 12:00Overcast Clouds20°C9 mph, SW90%10000m1009hPa56%
29-Jun-2024 15:00Overcast Clouds19°C9 mph, W97%10000m1008hPa68%
29-Jun-2024 18:00Overcast Clouds17°C7 mph, W99%10000m1007hPa83%
29-Jun-2024 21:00Light Rain14°C7 mph, SW99%10000m1007hPa94%
30-Jun-2024 00:00Overcast Clouds12°C9 mph, W95%10000m1006hPa97%
30-Jun-2024 03:00Light Rain11°C9 mph, W100%10000m1007hPa84%
30-Jun-2024 06:00Light Rain11°C9 mph, NW91%10000m1007hPa85%
30-Jun-2024 09:00Scattered Clouds15°C9 mph, NW42%10000m1007hPa61%
30-Jun-2024 12:00Light Rain16°C13 mph, W61%10000m1007hPa57%